sensor_id;sensor_type;location;lat;lon;timestamp;pressure;altitude;pressure_sealevel;temperature;humidity
36748;BME280;22716;51.556;5.080;2023-02-22T00:01:10;100814.22;;;6.16;100.00
36748;BME280;22716;51.556;5.080;2023-02-22T00:03:52;100816.81;;;6.14;100.00
36748;BME280;22716;51.556;5.080;2023-02-22T00:06:21;100814.19;;;6.11;100.00
36748;BME280;22716;51.556;5.080;2023-02-22T00:08:52;100826.28;;;6.08;100.00
36748;BME280;22716;51.556;5.080;2023-02-22T00:11:20;100819.31;;;6.02;100.00
36748;BME280;22716;51.556;5.080;2023-02-22T00:13:49;100821.06;;;6.03;100.00
36748;BME280;22716;51.556;5.080;2023-02-22T00:16:22;100819.34;;;6.04;100.00
36748;BME280;22716;51.556;5.080;2023-02-22T00:18:54;100817.63;;;6.06;100.00
36748;BME280;22716;51.556;5.080;2023-02-22T00:21:23;100817.63;;;6.06;100.00
36748;BME280;22716;51.556;5.080;2023-02-22T00:23:52;100821.09;;;6.08;100.00
36748;BME280;22716;51.556;5.080;2023-02-22T00:26:22;100821.13;;;6.12;100.00
36748;BME280;22716;51.556;5.080;2023-02-22T00:28:52;100828.09;;;6.16;100.00
36748;BME280;22716;51.556;5.080;2023-02-22T00:31:21;100818.53;;;6.12;100.00
36748;BME280;22716;51.556;5.080;2023-02-22T00:33:49;100819.41;;;6.13;100.00
36748;BME280;22716;51.556;5.080;2023-02-22T00:36:21;100816.75;;;6.05;100.00
36748;BME280;22716;51.556;5.080;2023-02-22T00:38:49;100816.69;;;5.99;100.00
36748;BME280;22716;51.556;5.080;2023-02-22T00:41:18;100807.94;;;5.88;100.00
36748;BME280;22716;51.556;5.080;2023-02-22T00:43:47;100805.28;;;5.84;100.00
36748;BME280;22716;51.556;5.080;2023-02-22T00:46:16;100812.19;;;5.82;100.00
36748;BME280;22716;51.556;5.080;2023-02-22T00:48:44;100803.50;;;5.80;100.00
36748;BME280;22716;51.556;5.080;2023-02-22T00:51:13;100800.06;;;5.81;100.00
36748;BME280;22716;51.556;5.080;2023-02-22T00:53:44;100803.53;;;5.83;100.00
36748;BME280;22716;51.556;5.080;2023-02-22T00:56:13;100796.59;;;5.80;100.00
36748;BME280;22716;51.556;5.080;2023-02-22T00:58:42;100790.47;;;5.75;100.00
36748;BME280;22716;51.556;5.080;2023-02-22T01:01:10;100787.03;;;5.79;100.00
36748;BME280;22716;51.556;5.080;2023-02-22T01:03:39;100797.44;;;5.82;100.00
36748;BME280;22716;51.556;5.080;2023-02-22T01:06:08;100798.31;;;5.80;100.00
36748;BME280;22716;51.556;5.080;2023-02-22T01:08:36;100796.56;;;5.82;100.00
36748;BME280;22716;51.556;5.080;2023-02-22T01:11:08;100787.03;;;5.78;100.00
36748;BME280;22716;51.556;5.080;2023-02-22T01:13:37;100792.28;;;5.84;100.00
36748;BME280;22716;51.556;5.080;2023-02-22T01:16:06;100795.78;;;5.86;100.00
36748;BME280;22716;51.556;5.080;2023-02-22T01:18:35;100788.00;;;5.86;100.00
36748;BME280;22716;51.556;5.080;2023-02-22T01:21:05;100787.09;;;5.84;100.00
36748;BME280;22716;51.556;5.080;2023-02-22T01:23:34;100775.78;;;5.82;100.00
36748;BME280;22716;51.556;5.080;2023-02-22T01:26:04;100784.44;;;5.82;100.00
36748;BME280;22716;51.556;5.080;2023-02-22T01:28:36;100775.72;;;5.76;100.00
36748;BME280;22716;51.556;5.080;2023-02-22T01:31:05;100783.53;;;5.76;100.00
36748;BME280;22716;51.556;5.080;2023-02-22T01:33:34;100769.63;;;5.69;100.00
36748;BME280;22716;51.556;5.080;2023-02-22T01:36:04;100771.34;;;5.69;100.00
36748;BME280;22716;51.556;5.080;2023-02-22T01:38:36;100767.00;;;5.68;100.00
36748;BME280;22716;51.556;5.080;2023-02-22T01:41:05;100751.38;;;5.60;100.00
36748;BME280;22716;51.556;5.080;2023-02-22T01:43:38;100760.09;;;5.68;100.00
36748;BME280;22716;51.556;5.080;2023-02-22T01:46:19;100760.03;;;5.62;100.00
36748;BME280;22716;51.556;5.080;2023-02-22T01:48:52;100753.97;;;5.60;100.00
36748;BME280;22716;51.556;5.080;2023-02-22T01:51:25;100753.09;;;5.64;100.00
36748;BME280;22716;51.556;5.080;2023-02-22T01:54:02;100747.91;;;5.64;100.00
36748;BME280;22716;51.556;5.080;2023-02-22T01:56:34;100753.16;;;5.70;100.00
36748;BME280;22716;51.556;5.080;2023-02-22T01:59:09;100747.94;;;5.65;100.00
36748;BME280;22716;51.556;5.080;2023-02-22T02:01:39;100732.28;;;5.59;100.00
36748;BME280;22716;51.556;5.080;2023-02-22T02:04:14;100734.91;;;5.64;100.00
36748;BME280;22716;51.556;5.080;2023-02-22T02:06:44;100739.28;;;5.70;100.00
36748;BME280;22716;51.556;5.080;2023-02-22T02:09:18;100741.91;;;5.71;100.00
36748;BME280;22716;51.556;5.080;2023-02-22T02:11:48;100728.00;;;5.63;100.00
36748;BME280;22716;51.556;5.080;2023-02-22T02:14:20;100734.06;;;5.63;100.00
36748;BME280;22716;51.556;5.080;2023-02-22T02:16:50;100726.22;;;5.57;100.00
36748;BME280;22716;51.556;5.080;2023-02-22T02:19:38;100727.94;;;5.57;100.00
36748;BME280;22716;51.556;5.080;2023-02-22T02:22:21;100727.91;;;5.55;100.00
36748;BME280;22716;51.556;5.080;2023-02-22T02:25:14;100723.56;;;5.53;100.00
36748;BME280;22716;51.556;5.080;2023-02-22T02:28:16;100724.41;;;5.49;100.00
36748;BME280;22716;51.556;5.080;2023-02-22T02:31:20;100721.78;;;5.47;100.00
36748;BME280;22716;51.556;5.080;2023-02-22T02:34:00;100719.22;;;5.49;100.00
36748;BME280;22716;51.556;5.080;2023-02-22T02:36:35;100722.63;;;5.46;100.00
36748;BME280;22716;51.556;5.080;2023-02-22T02:39:12;100698.34;;;5.38;100.00
36748;BME280;22716;51.556;5.080;2023-02-22T02:41:47;100701.81;;;5.39;100.00
36748;BME280;22716;51.556;5.080;2023-02-22T02:44:23;100709.69;;;5.48;100.00
36748;BME280;22716;51.556;5.080;2023-02-22T02:46:55;100702.72;;;5.47;100.00
36748;BME280;22716;51.556;5.080;2023-02-22T02:49:35;100710.50;;;5.42;100.00
36748;BME280;22716;51.556;5.080;2023-02-22T02:52:08;100700.06;;;5.36;100.00
36748;BME280;22716;51.556;5.080;2023-02-22T02:54:38;100702.63;;;5.33;100.00
36748;BME280;22716;51.556;5.080;2023-02-22T02:57:08;100705.22;;;5.33;100.00
36748;BME280;22716;51.556;5.080;2023-02-22T02:59:37;100705.22;;;5.35;100.00
36748;BME280;22716;51.556;5.080;2023-02-22T03:02:17;100702.63;;;5.35;100.00
36748;BME280;22716;51.556;5.080;2023-02-22T03:05:02;100690.47;;;5.28;100.00
36748;BME280;22716;51.556;5.080;2023-02-22T03:07:44;100688.72;;;5.27;100.00
36748;BME280;22716;51.556;5.080;2023-02-22T03:10:31;100690.47;;;5.29;100.00
36748;BME280;22716;51.556;5.080;2023-02-22T03:13:08;100687.03;;;5.33;100.00
36748;BME280;22716;51.556;5.080;2023-02-22T03:15:47;100689.59;;;5.32;100.00
36748;BME280;22716;51.556;5.080;2023-02-22T03:18:24;100670.53;;;5.27;100.00
36748;BME280;22716;51.556;5.080;2023-02-22T03:21:09;100672.25;;;5.25;100.00
36748;BME280;22716;51.556;5.080;2023-02-22T03:23:45;100655.81;;;5.27;100.00
36748;BME280;22716;51.556;5.080;2023-02-22T03:26:22;100661.03;;;5.30;100.00
36748;BME280;22716;51.556;5.080;2023-02-22T03:28:51;100662.72;;;5.27;100.00
36748;BME280;22716;51.556;5.080;2023-02-22T03:31:24;100654.88;;;5.19;100.00
36748;BME280;22716;51.556;5.080;2023-02-22T03:33:58;100648.81;;;5.19;100.00
36748;BME280;22716;51.556;5.080;2023-02-22T03:36:33;100647.06;;;5.16;100.00
36748;BME280;22716;51.556;5.080;2023-02-22T03:39:06;100628.84;;;5.10;100.00
36748;BME280;22716;51.556;5.080;2023-02-22T03:41:38;100629.75;;;5.15;100.00
36748;BME280;22716;51.556;5.080;2023-02-22T03:44:12;100628.84;;;5.12;100.00
36748;BME280;22716;51.556;5.080;2023-02-22T03:46:44;100627.06;;;5.06;100.00
36748;BME280;22716;51.556;5.080;2023-02-22T03:49:22;100625.31;;;5.05;100.00
36748;BME280;22716;51.556;5.080;2023-02-22T03:51:57;100623.59;;;5.04;100.00
36748;BME280;22716;51.556;5.080;2023-02-22T03:54:27;100622.75;;;5.08;100.00
36748;BME280;22716;51.556;5.080;2023-02-22T03:56:59;100621.94;;;5.11;100.00
36748;BME280;22716;51.556;5.080;2023-02-22T03:59:32;100610.59;;;5.02;100.00
36748;BME280;22716;51.556;5.080;2023-02-22T04:02:01;100614.09;;;5.04;100.00
36748;BME280;22716;51.556;5.080;2023-02-22T04:04:30;100599.31;;;4.99;100.00
36748;BME280;22716;51.556;5.080;2023-02-22T04:07:01;100601.91;;;4.96;100.00
36748;BME280;22716;51.556;5.080;2023-02-22T04:09:30;100598.44;;;4.95;100.00
36748;BME280;22716;51.556;5.080;2023-02-22T04:11:59;100607.94;;;4.96;100.00
36748;BME280;22716;51.556;5.080;2023-02-22T04:14:28;100600.13;;;4.93;100.00
36748;BME280;22716;51.556;5.080;2023-02-22T04:16:57;100595.78;;;4.89;100.00
36748;BME280;22716;51.556;5.080;2023-02-22T04:19:26;100585.38;;;4.89;100.00
36748;BME280;22716;51.556;5.080;2023-02-22T04:21:54;100589.72;;;4.89;100.00
36748;BME280;22716;51.556;5.080;2023-02-22T04:24:26;100584.50;;;4.84;100.00
36748;BME280;22716;51.556;5.080;2023-02-22T04:26:54;100581.00;;;4.85;100.00
36748;BME280;22716;51.556;5.080;2023-02-22T04:29:23;100589.72;;;4.92;100.00
36748;BME280;22716;51.556;5.080;2023-02-22T04:31:52;100547.06;;;4.60;100.00
36748;BME280;22716;51.556;5.080;2023-02-22T04:34:20;100592.34;;;4.92;100.00
36748;BME280;22716;51.556;5.080;2023-02-22T04:36:49;100576.69;;;4.81;100.00
36748;BME280;22716;51.556;5.080;2023-02-22T04:39:18;100596.66;;;4.91;100.00
36748;BME280;22716;51.556;5.080;2023-02-22T04:41:49;100595.81;;;4.92;100.00
36748;BME280;22716;51.556;5.080;2023-02-22T04:44:18;100586.22;;;4.84;100.00
36748;BME280;22716;51.556;5.080;2023-02-22T04:46:47;100577.53;;;4.82;100.00
36748;BME280;22716;51.556;5.080;2023-02-22T04:49:16;100587.09;;;4.84;100.00
36748;BME280;22716;51.556;5.080;2023-02-22T04:51:44;100583.66;;;4.87;100.00
36748;BME280;22716;51.556;5.080;2023-02-22T04:54:13;100574.09;;;4.81;100.00
36748;BME280;22716;51.556;5.080;2023-02-22T04:56:43;100580.19;;;4.86;100.00
36748;BME280;22716;51.556;5.080;2023-02-22T04:59:14;100582.75;;;4.88;100.00
36748;BME280;22716;51.556;5.080;2023-02-22T05:01:44;100573.22;;;4.85;100.00
36748;BME280;22716;51.556;5.080;2023-02-22T05:04:13;100578.41;;;4.85;100.00
36748;BME280;22716;51.556;5.080;2023-02-22T05:06:41;100555.88;;;4.78;100.00
36748;BME280;22716;51.556;5.080;2023-02-22T05:09:10;100571.53;;;4.90;100.00
36748;BME280;22716;51.556;5.080;2023-02-22T05:11:39;100570.72;;;4.93;100.00
36748;BME280;22716;51.556;5.080;2023-02-22T05:14:08;100569.84;;;4.92;100.00
36748;BME280;22716;51.556;5.080;2023-02-22T05:16:39;100542.09;;;4.84;100.00
36748;BME280;22716;51.556;5.080;2023-02-22T05:19:08;100561.19;;;4.93;100.00
36748;BME280;22716;51.556;5.080;2023-02-22T05:21:36;100555.97;;;4.90;100.00
36748;BME280;22716;51.556;5.080;2023-02-22T05:24:06;100555.97;;;4.90;100.00
36748;BME280;22716;51.556;5.080;2023-02-22T05:26:34;100549.91;;;4.91;100.00
36748;BME280;22716;51.556;5.080;2023-02-22T05:29:03;100542.16;;;4.94;100.00
36748;BME280;22716;51.556;5.080;2023-02-22T05:31:32;100542.97;;;4.90;100.00
36748;BME280;22716;51.556;5.080;2023-02-22T05:34:03;100540.38;;;4.90;100.00
36748;BME280;22716;51.556;5.080;2023-02-22T05:36:32;100533.44;;;4.88;100.00
36748;BME280;22716;51.556;5.080;2023-02-22T05:39:00;100529.13;;;4.87;100.00
36748;BME280;22716;51.556;5.080;2023-02-22T05:41:30;100529.97;;;4.87;100.00
36748;BME280;22716;51.556;5.080;2023-02-22T05:43:58;100525.69;;;4.89;100.00
36748;BME280;22716;51.556;5.080;2023-02-22T05:46:27;100514.38;;;4.81;100.00
36748;BME280;22716;51.556;5.080;2023-02-22T05:48:56;100524.81;;;4.90;100.00
36748;BME280;22716;51.556;5.080;2023-02-22T05:51:27;100512.75;;;4.97;100.00
36748;BME280;22716;51.556;5.080;2023-02-22T05:53:56;100512.78;;;4.98;100.00
36748;BME280;22716;51.556;5.080;2023-02-22T05:56:27;100506.72;;;5.02;100.00
36748;BME280;22716;51.556;5.080;2023-02-22T05:58:57;100498.91;;;4.99;100.00
36748;BME280;22716;51.556;5.080;2023-02-22T06:01:26;100503.25;;;4.96;100.00
36748;BME280;22716;51.556;5.080;2023-02-22T06:03:55;100494.56;;;4.95;100.00
36748;BME280;22716;51.556;5.080;2023-02-22T06:06:23;100493.72;;;4.98;100.00
36748;BME280;22716;51.556;5.080;2023-02-22T06:08:55;100490.25;;;4.97;100.00
36748;BME280;22716;51.556;5.080;2023-02-22T06:11:23;100489.41;;;4.98;100.00
36748;BME280;22716;51.556;5.080;2023-02-22T06:13:52;100482.47;;;4.97;100.00
36748;BME280;22716;51.556;5.080;2023-02-22T06:16:21;100474.66;;;4.93;100.00
36748;BME280;22716;51.556;5.080;2023-02-22T06:18:50;100472.91;;;4.93;100.00
36748;BME280;22716;51.556;5.080;2023-02-22T06:21:19;100460.81;;;4.92;100.00
36748;BME280;22716;51.556;5.080;2023-02-22T06:23:48;100467.72;;;4.93;100.00
36748;BME280;22716;51.556;5.080;2023-02-22T06:26:19;100459.06;;;4.91;100.00
36748;BME280;22716;51.556;5.080;2023-02-22T06:28:48;100476.41;;;4.95;100.00
36748;BME280;22716;51.556;5.080;2023-02-22T06:31:17;100473.78;;;4.94;100.00
36748;BME280;22716;51.556;5.080;2023-02-22T06:33:45;100472.94;;;4.95;100.00
36748;BME280;22716;51.556;5.080;2023-02-22T06:36:14;100475.50;;;4.93;100.00
36748;BME280;22716;51.556;5.080;2023-02-22T06:38:43;100479.00;;;4.95;100.00
36748;BME280;22716;51.556;5.080;2023-02-22T06:41:11;100482.44;;;4.93;100.00
36748;BME280;22716;51.556;5.080;2023-02-22T06:43:43;100473.75;;;4.88;100.00
36748;BME280;22716;51.556;5.080;2023-02-22T06:46:12;100474.63;;;4.88;100.00
36748;BME280;22716;51.556;5.080;2023-02-22T06:48:41;100476.34;;;4.86;100.00
36748;BME280;22716;51.556;5.080;2023-02-22T06:51:09;100480.66;;;4.86;100.00
36748;BME280;22716;51.556;5.080;2023-02-22T06:53:38;100485.00;;;4.87;100.00
36748;BME280;22716;51.556;5.080;2023-02-22T06:56:07;100484.97;;;4.85;100.00
36748;BME280;22716;51.556;5.080;2023-02-22T06:58:35;100489.34;;;4.89;100.00
36748;BME280;22716;51.556;5.080;2023-02-22T07:01:07;100486.72;;;4.86;100.00
36748;BME280;22716;51.556;5.080;2023-02-22T07:03:35;100491.97;;;4.92;100.00
36748;BME280;22716;51.556;5.080;2023-02-22T07:06:05;100484.19;;;4.95;100.00
36748;BME280;22716;51.556;5.080;2023-02-22T07:08:35;100496.28;;;4.96;100.00
36748;BME280;22716;51.556;5.080;2023-02-22T07:11:04;100500.63;;;4.97;100.00
36748;BME280;22716;51.556;5.080;2023-02-22T07:13:33;100498.91;;;4.98;100.00
36748;BME280;22716;51.556;5.080;2023-02-22T07:16:02;100500.66;;;5.00;100.00
36748;BME280;22716;51.556;5.080;2023-02-22T07:18:33;100499.84;;;5.07;100.00
36748;BME280;22716;51.556;5.080;2023-02-22T07:21:03;100496.31;;;4.99;100.00
36748;BME280;22716;51.556;5.080;2023-02-22T07:23:32;100505.03;;;5.06;100.00
36748;BME280;22716;51.556;5.080;2023-02-22T07:26:02;100498.06;;;5.05;100.00
36748;BME280;22716;51.556;5.080;2023-02-22T07:28:31;100495.47;;;5.00;100.00
36748;BME280;22716;51.556;5.080;2023-02-22T07:31:00;100517.19;;;5.15;100.00
36748;BME280;22716;51.556;5.080;2023-02-22T07:33:29;100512.03;;;5.16;100.00
36748;BME280;22716;51.556;5.080;2023-02-22T07:36:00;100520.66;;;5.15;100.00
36748;BME280;22716;51.556;5.080;2023-02-22T07:38:30;100518.06;;;5.11;100.00
36748;BME280;22716;51.556;5.080;2023-02-22T07:40:59;100512.00;;;5.15;100.00
36748;BME280;22716;51.556;5.080;2023-02-22T07:43:28;100528.47;;;5.18;100.00
36748;BME280;22716;51.556;5.080;2023-02-22T07:45:59;100525.03;;;5.21;100.00
36748;BME280;22716;51.556;5.080;2023-02-22T07:48:30;100519.81;;;5.21;100.00
36748;BME280;22716;51.556;5.080;2023-02-22T07:51:01;100525.03;;;5.24;100.00
36748;BME280;22716;51.556;5.080;2023-02-22T07:53:32;100528.50;;;5.26;100.00
36748;BME280;22716;51.556;5.080;2023-02-22T07:56:03;100506.88;;;5.25;100.00
36748;BME280;22716;51.556;5.080;2023-02-22T07:58:33;100500.84;;;5.31;100.00
36748;BME280;22716;51.556;5.080;2023-02-22T08:01:03;100501.72;;;5.34;100.00
36748;BME280;22716;51.556;5.080;2023-02-22T08:03:34;100493.06;;;5.31;100.00
36748;BME280;22716;51.556;5.080;2023-02-22T08:06:07;100494.81;;;5.36;100.00
36748;BME280;22716;51.556;5.080;2023-02-22T08:08:36;100499.16;;;5.39;100.00
36748;BME280;22716;51.556;5.080;2023-02-22T08:11:05;100496.59;;;5.48;100.00
36748;BME280;22716;51.556;5.080;2023-02-22T08:13:34;100492.28;;;5.53;100.00
36748;BME280;22716;51.556;5.080;2023-02-22T08:16:04;100495.75;;;5.55;100.00
36748;BME280;22716;51.556;5.080;2023-02-22T08:18:33;100495.75;;;5.55;100.00
36748;BME280;22716;51.556;5.080;2023-02-22T08:21:05;100507.03;;;5.61;100.00
36748;BME280;22716;51.556;5.080;2023-02-22T08:23:34;100504.50;;;5.69;100.00
36748;BME280;22716;51.556;5.080;2023-02-22T08:26:04;100475.00;;;5.64;100.00
36748;BME280;22716;51.556;5.080;2023-02-22T08:28:34;100492.41;;;5.80;100.00
36748;BME280;22716;51.556;5.080;2023-02-22T08:31:03;100513.19;;;5.77;100.00
36748;BME280;22716;51.556;5.080;2023-02-22T08:33:32;100504.50;;;5.77;100.00
36748;BME280;22716;51.556;5.080;2023-02-22T08:36:01;100498.50;;;5.88;100.00
36748;BME280;22716;51.556;5.080;2023-02-22T08:38:32;100512.38;;;5.90;100.00
36748;BME280;22716;51.556;5.080;2023-02-22T08:41:02;100504.59;;;5.89;100.00
36748;BME280;22716;51.556;5.080;2023-02-22T08:43:31;100500.25;;;5.91;100.00
36748;BME280;22716;51.556;5.080;2023-02-22T08:46:00;100498.53;;;5.97;100.00
36748;BME280;22716;51.556;5.080;2023-02-22T08:48:29;100493.34;;;5.96;100.00
36748;BME280;22716;51.556;5.080;2023-02-22T08:50:57;100483.81;;;6.02;100.00
36748;BME280;22716;51.556;5.080;2023-02-22T08:53:26;100476.91;;;6.10;100.00
36748;BME280;22716;51.556;5.080;2023-02-22T08:56:00;100468.22;;;6.14;100.00
36748;BME280;22716;51.556;5.080;2023-02-22T08:58:28;100461.28;;;6.16;100.00
36748;BME280;22716;51.556;5.080;2023-02-22T09:00:57;100451.75;;;6.17;100.00
36748;BME280;22716;51.556;5.080;2023-02-22T09:03:26;100450.03;;;6.30;100.00
36748;BME280;22716;51.556;5.080;2023-02-22T09:05:55;100445.69;;;6.35;100.00
36748;BME280;22716;51.556;5.080;2023-02-22T09:08:24;100447.44;;;6.39;100.00
36748;BME280;22716;51.556;5.080;2023-02-22T09:10:52;100452.66;;;6.48;100.00
36748;BME280;22716;51.556;5.080;2023-02-22T09:13:24;100460.47;;;6.54;100.00
36748;BME280;22716;51.556;5.080;2023-02-22T09:15:52;100461.31;;;6.53;100.00
36748;BME280;22716;51.556;5.080;2023-02-22T09:18:21;100461.31;;;6.56;100.00
36748;BME280;22716;51.556;5.080;2023-02-22T09:20:51;100471.72;;;6.62;100.00
36748;BME280;22716;51.556;5.080;2023-02-22T09:23:20;100470.84;;;6.64;100.00
36748;BME280;22716;51.556;5.080;2023-02-22T09:25:50;100477.81;;;6.71;100.00
36748;BME280;22716;51.556;5.080;2023-02-22T09:28:19;100463.91;;;6.72;100.00
36748;BME280;22716;51.556;5.080;2023-02-22T09:30:51;100468.25;;;6.78;100.00
36748;BME280;22716;51.556;5.080;2023-02-22T09:33:20;100465.66;;;6.78;100.00
36748;BME280;22716;51.556;5.080;2023-02-22T09:35:50;100469.97;;;6.82;100.00
36748;BME280;22716;51.556;5.080;2023-02-22T09:38:21;100466.50;;;6.86;100.00
36748;BME280;22716;51.556;5.080;2023-02-22T09:40:52;100457.81;;;6.87;100.00
36748;BME280;22716;51.556;5.080;2023-02-22T09:43:36;100464.78;;;6.93;100.00
36748;BME280;22716;51.556;5.080;2023-02-22T09:46:17;100462.16;;;6.94;100.00
36748;BME280;22716;51.556;5.080;2023-02-22T09:48:55;100456.94;;;7.00;100.00
36748;BME280;22716;51.556;5.080;2023-02-22T09:51:28;100459.53;;;7.03;100.00
36748;BME280;22716;51.556;5.080;2023-02-22T09:54:02;100462.13;;;7.15;100.00
36748;BME280;22716;51.556;5.080;2023-02-22T09:56:32;100455.97;;;7.25;100.00
36748;BME280;22716;51.556;5.080;2023-02-22T09:59:02;100456.84;;;7.29;100.00
36748;BME280;22716;51.556;5.080;2023-02-22T10:01:38;100459.47;;;7.33;100.00
36748;BME280;22716;51.556;5.080;2023-02-22T10:04:14;100452.47;;;7.34;100.00
36748;BME280;22716;51.556;5.080;2023-02-22T10:07:05;100458.53;;;7.44;100.00
36748;BME280;22716;51.556;5.080;2023-02-22T10:09:41;100458.50;;;7.50;100.00
36748;BME280;22716;51.556;5.080;2023-02-22T10:12:14;100454.16;;;7.53;100.00
36748;BME280;22716;51.556;5.080;2023-02-22T10:15:05;100453.28;;;7.53;100.00
36748;BME280;22716;51.556;5.080;2023-02-22T10:17:46;100443.72;;;7.52;100.00
36748;BME280;22716;51.556;5.080;2023-02-22T10:20:31;100449.78;;;7.55;100.00
36748;BME280;22716;51.556;5.080;2023-02-22T10:23:13;100462.81;;;7.66;100.00
36748;BME280;22716;51.556;5.080;2023-02-22T10:25:50;100459.31;;;7.68;100.00
36748;BME280;22716;51.556;5.080;2023-02-22T10:28:24;100459.25;;;7.76;100.00
36748;BME280;22716;51.556;5.080;2023-02-22T10:30:58;100456.63;;;7.79;100.00
36748;BME280;22716;51.556;5.080;2023-02-22T10:33:36;100465.25;;;7.90;100.00
36748;BME280;22716;51.556;5.080;2023-02-22T10:36:15;100460.00;;;8.01;100.00
36748;BME280;22716;51.556;5.080;2023-02-22T10:38:51;100467.75;;;8.08;100.00
36748;BME280;22716;51.556;5.080;2023-02-22T10:41:27;100465.97;;;8.16;100.00
36748;BME280;22716;51.556;5.080;2023-02-22T10:43:57;100464.22;;;8.21;100.00
36748;BME280;22716;51.556;5.080;2023-02-22T10:46:27;100439.03;;;8.14;100.00
36748;BME280;22716;51.556;5.080;2023-02-22T10:49:02;100457.22;;;8.26;100.00
36748;BME280;22716;51.556;5.080;2023-02-22T10:51:32;100453.69;;;8.35;100.00
36748;BME280;22716;51.556;5.080;2023-02-22T10:54:18;100452.78;;;8.42;100.00
36748;BME280;22716;51.556;5.080;2023-02-22T10:56:52;100447.50;;;8.47;100.00
36748;BME280;22716;51.556;5.080;2023-02-22T10:59:28;100440.53;;;8.50;100.00
36748;BME280;22716;51.556;5.080;2023-02-22T11:01:58;100452.69;;;8.54;100.00
36748;BME280;22716;51.556;5.080;2023-02-22T11:04:44;100443.09;;;8.55;100.00
36748;BME280;22716;51.556;5.080;2023-02-22T11:07:22;100450.88;;;8.58;100.00
36748;BME280;22716;51.556;5.080;2023-02-22T11:09:54;100443.09;;;8.56;100.00
36748;BME280;22716;51.556;5.080;2023-02-22T11:12:29;100448.28;;;8.59;100.00
36748;BME280;22716;51.556;5.080;2023-02-22T11:15:24;100445.66;;;8.58;100.00
36748;BME280;22716;51.556;5.080;2023-02-22T11:17:55;100448.31;;;8.56;100.00
36748;BME280;22716;51.556;5.080;2023-02-22T11:20:31;100447.41;;;8.57;100.00
36748;BME280;22716;51.556;5.080;2023-02-22T11:23:03;100433.50;;;8.57;100.00
36748;BME280;22716;51.556;5.080;2023-02-22T11:25:35;100435.22;;;8.58;100.00
36748;BME280;22716;51.556;5.080;2023-02-22T11:28:09;100427.38;;;8.61;100.00
36748;BME280;22716;51.556;5.080;2023-02-22T11:30:40;100440.38;;;8.68;100.00
36748;BME280;22716;51.556;5.080;2023-02-22T11:33:17;100415.97;;;8.69;100.00
36748;BME280;22716;51.556;5.080;2023-02-22T11:35:52;100412.50;;;8.72;100.00
36748;BME280;22716;51.556;5.080;2023-02-22T11:38:22;100417.56;;;8.84;100.00
36748;BME280;22716;51.556;5.080;2023-02-22T11:41:13;100415.69;;;8.96;100.00
36748;BME280;22716;51.556;5.080;2023-02-22T11:43:44;100420.84;;;9.04;100.00
36748;BME280;22716;51.556;5.080;2023-02-22T11:46:16;100408.56;;;9.11;100.00
36748;BME280;22716;51.556;5.080;2023-02-22T11:48:56;100392.03;;;9.07;100.00
36748;BME280;22716;51.556;5.080;2023-02-22T11:51:42;100404.19;;;9.16;100.00
36748;BME280;22716;51.556;5.080;2023-02-22T11:54:33;100398.03;;;9.18;100.00
36748;BME280;22716;51.556;5.080;2023-02-22T11:57:25;100395.41;;;9.20;100.00
36748;BME280;22716;51.556;5.080;2023-02-22T12:00:07;100393.69;;;9.19;100.00
36748;BME280;22716;51.556;5.080;2023-02-22T12:05:51;100379.75;;;9.18;100.00
36748;BME280;22716;51.556;5.080;2023-02-22T12:08:38;100376.22;;;9.19;100.00
36748;BME280;22716;51.556;5.080;2023-02-22T12:11:14;100383.16;;;9.23;100.00
36748;BME280;22716;51.556;5.080;2023-02-22T12:13:57;100392.75;;;9.24;100.00
36748;BME280;22716;51.556;5.080;2023-02-22T12:16:43;100381.41;;;9.22;100.00
36748;BME280;22716;51.556;5.080;2023-02-22T12:19:28;100396.16;;;9.29;100.00
36748;BME280;22716;51.556;5.080;2023-02-22T12:22:03;100400.44;;;9.35;100.00
36748;BME280;22716;51.556;5.080;2023-02-22T12:24:42;100383.97;;;9.30;100.00
36748;BME280;22716;51.556;5.080;2023-02-22T12:27:17;100389.97;;;9.36;100.00
36748;BME280;22716;51.556;5.080;2023-02-22T12:29:50;100387.41;;;9.33;100.00
36748;BME280;22716;51.556;5.080;2023-02-22T12:32:29;100387.38;;;9.35;100.00
36748;BME280;22716;51.556;5.080;2023-02-22T12:35:10;100396.09;;;9.34;100.00
36748;BME280;22716;51.556;5.080;2023-02-22T12:37:50;100373.53;;;9.25;100.00
36748;BME280;22716;51.556;5.080;2023-02-22T12:40:27;100393.47;;;9.35;100.00
36748;BME280;22716;51.556;5.080;2023-02-22T12:43:04;100385.63;;;9.35;100.00
36748;BME280;22716;51.556;5.080;2023-02-22T12:45:39;100364.81;;;9.25;100.00
36748;BME280;22716;51.556;5.080;2023-02-22T12:48:28;100399.41;;;9.46;100.00
36748;BME280;22716;51.556;5.080;2023-02-22T12:51:06;100391.56;;;9.46;100.00
36748;BME280;22716;51.556;5.080;2023-02-22T12:53:40;100390.69;;;9.47;100.00
36748;BME280;22716;51.556;5.080;2023-02-22T12:56:21;100398.44;;;9.56;100.00
36748;BME280;22716;51.556;5.080;2023-02-22T12:58:56;100380.25;;;9.47;100.00
36748;BME280;22716;51.556;5.080;2023-02-22T13:01:33;100396.66;;;9.58;100.00
36748;BME280;22716;51.556;5.080;2023-02-22T13:04:05;100401.00;;;9.60;100.00
36748;BME280;22716;51.556;5.080;2023-02-22T13:06:48;100395.72;;;9.63;100.00
36748;BME280;22716;51.556;5.080;2023-02-22T13:09:40;100397.44;;;9.65;100.00
36748;BME280;22716;51.556;5.080;2023-02-22T13:12:20;100394.78;;;9.67;100.00
36748;BME280;22716;51.556;5.080;2023-02-22T13:14:59;100386.97;;;9.64;100.00
36748;BME280;22716;51.556;5.080;2023-02-22T13:17:36;100390.47;;;9.64;100.00
36748;BME280;22716;51.556;5.080;2023-02-22T13:20:12;100392.19;;;9.65;100.00
36748;BME280;22716;51.556;5.080;2023-02-22T13:22:47;100391.28;;;9.66;100.00